Aviation Digital Data Service (ADDS)

Output produced by METARs form (0432 UTC 22 September 2017)
found at http://www.aviationweather.gov/adds/metars/
 
VNKT 220420Z 15003KT 080V230 7000 FEW010 FEW025TCU SCT030 BKN100 24/21 Q1017 NOSIG
TAF VNKT 212300Z 2200/2224 00000KT 5000 BR FEW010 SCT100 
     PROB30 2200/2202 3000 BR FEW008 
     BECMG 2204/2205 12004KT 7000 FEW015 SCT030 
     BECMG 2207/2209 26008KT 8000 FEW015 SCT030 BKN100 
     PROB40 2208/2212 5000 -TSRA FEW025CB OVC090 
     BECMG 2214/2215 VRB02KT 6000 FEW015 SCT030